Olympic Champion — SYWD — position and weather

sailwx.info

Track history (hours):
 
Tides and Currents Weather Stations Pressure Air Temp Water Temp Dewpoint Dewpoint Depression Visibility Wind Speed Wind Dir Waves Ship Positions

Olympic Champion

Last reported at 2017-Mar-25 02:30 UTC. Time now 2017-Mar-25 15:36 UTC.
Position N 40°16' E 019°06'.

Length 204 m; draft 6.5 m.

Type: Ship. MMSI: 237280000.

Date/timePositionNaut miles runAvg speedWind from/ knotsBaromVisibWave heightAir tempDewpointWater temp
2017-Mar-25 02:30N 40°16' E 019°06'2323.8
2017-Mar-25 01:33N 40°28' E 018°41'2524.3
2017-Mar-25 00:31N 40°44' E 018°16'2524.3
2017-Mar-24 23:28N 41°00' E 017°50'22424.1
2017-Mar-24 14:11N 43°27' E 014°02'1523.8
2017-Mar-24 13:33N 43°37' E 013°46'  
2017-Mar-22 01:20N 40°37' E 018°29'26124.2
2017-Mar-21 14:33N 43°27' E 014°02'25 1.6
2017-Mar-20 23:07N 43°37' E 013°30'0 0.0
2017-Mar-20 22:31N 43°37' E 013°30'0 0.0
2017-Mar-20 21:19N 43°37' E 013°30'0 0.0
2017-Mar-20 18:04N 43°37' E 013°30'0 0.0
2017-Mar-20 17:31N 43°37' E 013°30'0 0.0
2017-Mar-20 16:19N 43°37' E 013°30'0 0.0
2017-Mar-20 15:28N 43°37' E 013°30'8 8.1
2017-Mar-20 14:30N 43°42' E 013°39'2324.2
2017-Mar-20 13:33N 43°30' E 014°05'64 1.5
2017-Mar-18 19:16N 42°45' E 015°08'4627.3
2017-Mar-18 17:33N 43°15' E 014°21'2727.4
2017-Mar-18 16:33N 43°33' E 013°52'5 1.0
2017-Mar-18 11:24N 43°33' E 013°59'  
Track history (hours):
 
Tides and Currents Weather Stations Pressure Air Temp Water Temp Dewpoint Dewpoint Depression Visibility Wind Speed Wind Dir Waves Ship Positions

Olympic Champion

Last reported at 2017-Mar-25 02:30 UTC. Time now 2017-Mar-25 15:36 UTC.
Position N 40°16' E 019°06'.

Length 204 m; draft 6.5 m.

Type: Ship. MMSI: 237280000.

Date/timePositionNaut miles runAvg speedWind from/ knotsBaromVisibWave heightAir tempDewpointWater temp
2017-Mar-25 02:30N 40°16' E 019°06'2323.8
2017-Mar-25 01:33N 40°28' E 018°41'2524.3
2017-Mar-25 00:31N 40°44' E 018°16'2524.3
2017-Mar-24 23:28N 41°00' E 017°50'22424.1
2017-Mar-24 14:11N 43°27' E 014°02'1523.8
2017-Mar-24 13:33N 43°37' E 013°46'  
2017-Mar-22 01:20N 40°37' E 018°29'26124.2
2017-Mar-21 14:33N 43°27' E 014°02'25 1.6
2017-Mar-20 23:07N 43°37' E 013°30'0 0.0
2017-Mar-20 22:31N 43°37' E 013°30'0 0.0
2017-Mar-20 21:19N 43°37' E 013°30'0 0.0
2017-Mar-20 18:04N 43°37' E 013°30'0 0.0
2017-Mar-20 17:31N 43°37' E 013°30'0 0.0
2017-Mar-20 16:19N 43°37' E 013°30'0 0.0
2017-Mar-20 15:28N 43°37' E 013°30'8 8.1
2017-Mar-20 14:30N 43°42' E 013°39'2324.2
2017-Mar-20 13:33N 43°30' E 014°05'64 1.5
2017-Mar-18 19:16N 42°45' E 015°08'4627.3
2017-Mar-18 17:33N 43°15' E 014°21'2727.4
2017-Mar-18 16:33N 43°33' E 013°52'5 1.0
2017-Mar-18 11:24N 43°33' E 013°59'  

Dump ship's entire track history